Главная страница
METAR-TAF:

METAR-TAF

Аэропорты :

Hagerstown, Мэриленд, США

широта: 39-42-21N, долгота: 077-43-48W, высота над уровнем моря: 214 м

Текущие метеонаблюдения

Эта сводка был подготовлена 9 минут назад, в 22:53 UTC
Ветер 6 Узел от юго-восточный
Температура 6°C
Влажность 75%
Давление 1022 hPa
Видимость: 12.9 км
ясное небо

METAR: KHGR 182253Z 14006KT 8SM CLR 06/02 A3018 RMK AO2 SLP237 T00610022

Время: 18:02 (23:02 UTC)


TAF: отсутствует

Метеонаблюдения и прогнозы для более 4000 аэропортов (сводки METAR и TAF).

Имеющиеся станции представлены на карте желтыми и красными точками.

Чтобы увидеть название станции, наведите на нее мышь.

Затем щелкните, чтобы увидеть метеонаблюдения и метеопрогнозы.

Управление картой: чтобы увеличить масштаб, щелкните зеленые кнопки с черным крестиком; чтобы уменьшить масштаб, щелкните зеленую кнопку с тире; для просмотра соседних карт щелкайте зеленые стрелки.


METAR-TAF: